Latest Coastal Weather Observations for Brisbane Airport

IDQ60701

Issued at 6:45 am EST Sunday 26 October 2014 (issued every 10 minutes, with the page automatically refreshed every 10 minutes)

About coastal observations | Map of coastal stations | Coastal observations for QLD | Marine services | Other Formats
Station Details ID: 040842 Name: BRISBANE AERO Lat: -27.39 Lon: 153.13 Height: 4.51 m
Data from the previous 72 hours. | See also: Recent months at Brisbane Airport
Date/Time
EST
Temp

°C
Wind Pressure Rain
since 9am
mm
Weather Cloud Vis
km
Sea
Height
m
Swell
Dir
 
Speed
knots
Gust
knots
hPa Trend Height
m
Period
s
Dir
26/06:30am 21.0 N 2 9 1016.2 - 0.0 - - 9 - - - -
26/06:00am 19.6 CALM 0 0 1016.3 F 0.0 Smoke Clear 20 - - - -
26/05:30am 17.5 CALM 0 0 1015.9 - 0.0 - - 10 - - - -
26/05:00am 17.3 CALM 0 0 1015.6 - 0.0 - - 10 - - - -
26/04:30am 17.8 CALM 0 0 1015.5 - 0.0 - - 10 - - - -
26/04:00am 18.2 N 1 4 1015.3 - 0.0 - - 10 - - - -
26/03:30am 18.0 CALM 0 0 1015.3 - 0.0 - - 10 - - - -
26/03:00am 18.3 CALM 0 0 1015.4 F 0.0 Smoke Clear 30 - - - -
26/02:30am 18.5 NW 5 7 1015.3 - 0.0 - - 10 - - - -
26/02:00am 19.5 NW 9 12 1015.3 - 0.0 - - 10 - - - -
26/01:30am 20.2 NNW 14 18 1015.5 - 0.0 - - 10 - - - -
26/01:00am 20.5 NNW 12 15 1015.7 - 0.0 - - 10 - - - -
26/12:52am 20.8 NNW 10 15 1016.0 - 0.0 - - 10 - - - -
26/12:35am 21.1 N 13 16 1016.3 - 0.0 - Mostly clear 6 - - - -
26/12:30am 21.2 N 12 16 1016.4 - 0.0 - Mostly clear 9 - - - -
26/12:00am 21.7 N 15 19 1016.6 R 0.0 Smoke Mostly clear 20 - - - -
 
Date/Time
EST
Temp

°C
Wind Pressure Rain
since 9am
mm
Weather Cloud Vis
km
Sea
Height
m
Swell
Dir
 
Speed
knots
Gust
knots
hPa Trend Height
m
Period
s
Dir
25/11:30pm 21.8 N 16 21 1016.7 - 0.0 - - 10 - - - -
25/11:00pm 21.9 N 16 22 1016.8 - 0.0 - - 10 - - - -
25/10:30pm 22.0 NNE 14 17 1017.2 - 0.0 - - 10 - - - -
25/10:00pm 22.3 NNE 13 17 1017.1 - 0.0 - - 10 - - - -
25/09:30pm 22.4 N 14 18 1016.8 - 0.0 - - 10 - - - -
25/09:00pm 22.2 N 14 18 1016.6 F 0.0 Smoke Partly cloudy 20 - - - -
25/08:30pm 22.5 N 15 19 1016.7 - 0.0 - - 10 - - - -
25/08:00pm 22.4 N 19 24 1016.0 - 0.0 - - 10 - - - -
25/07:30pm 22.3 N 18 25 1015.7 - 0.0 - - 10 - - - -
25/07:00pm 22.4 N 17 21 1015.5 - 0.0 - - 10 - - - -
25/06:30pm 22.5 N 17 22 1015.4 - 0.0 - Mostly clear 10 - - - -
25/06:00pm 22.5 N 17 22 1015.1 F 0.0 Smoke Partly cloudy 15 - - - -
25/05:30pm 23.0 N 17 23 1014.9 - 0.0 - Mostly clear 10 - - - -
25/05:00pm 23.5 N 16 20 1014.7 - 0.0 - Mostly clear 10 - - - -
25/04:30pm 24.1 N 17 22 1014.6 - 0.0 - Mostly clear 10 - - - -
25/04:00pm 24.3 N 18 21 1014.7 - 0.0 - Mostly clear 10 - - - -
25/03:30pm 24.2 N 18 23 1014.9 - 0.0 - Mostly clear 10 - - - -
25/03:00pm 24.6 N 18 23 1015.1 F 0.0 Fine Mostly clear 25 - - - -
25/02:30pm 24.6 N 20 26 1015.3 - 0.0 - Mostly clear 10 - - - -
25/02:00pm 25.2 N 19 24 1015.8 - 0.0 - Mostly clear 10 - - - -
25/01:30pm 25.4 NNE 19 25 1016.2 - 0.0 - Mostly clear 10 - - - -
25/01:00pm 25.3 NNE 20 26 1016.7 - 0.0 - Mostly clear 10 - - - -
25/12:30pm 24.6 NNE 19 24 1017.2 - 0.0 - Mostly clear 10 - - - -
25/12:00pm 25.6 NNE 18 22 1017.7 F 0.0 Fine Partly cloudy 30 - - - -
25/11:30am 24.9 NNE 17 21 1018.1 - 0.0 - - 10 - - - -
25/11:00am 24.9 N 16 20 1018.8 - 0.0 - Mostly clear 10 - - - -
25/10:30am 24.8 NNE 12 15 1019.5 - 0.0 - Mostly clear 10 - - - -
25/10:00am 24.6 N 12 16 1020.2 - 0.0 - Mostly clear 10 - - - -
25/09:30am 24.5 N 12 17 1020.6 - 0.0 - Mostly clear 10 - - - -
25/09:00am 24.0 N 12 16 1020.7 F 0.0 Fine Mostly clear 40 - - - -
25/08:30am 23.0 N 12 15 1020.9 - 0.0 - Mostly clear 10 - - - -
25/08:00am 22.1 NNW 10 15 1021.0 - 0.0 - Mostly clear 10 - - - -
25/07:30am 21.4 NW 9 14 1021.2 - 0.0 - Mostly clear 10 - - - -
25/07:00am 21.0 WNW 7 9 1021.1 - 0.0 - Mostly clear 10 - - - -
25/06:30am 19.4 W 5 8 1020.9 - 0.0 - Mostly clear 10 - - - -
25/06:00am 17.6 W 6 7 1020.6 S 0.0 Fine Mostly clear 30 - - - -
25/05:30am 16.5 WNW 6 7 1020.0 - 0.0 - - 10 - - - -
25/05:00am 15.9 NW 5 7 1019.7 - 0.0 - Mostly clear 10 - - - -
25/04:30am 15.7 WNW 5 5 1019.6 - 0.0 - Mostly clear 10 - - - -
25/04:00am 16.0 CALM 0 0 1019.4 - 0.0 - - 10 - - - -
25/03:30am 16.5 W 1 3 1019.4 - 0.0 - - 10 - - - -
25/03:00am 16.5 WSW 4 5 1019.4 F 0.0 Fine Clear 30 - - - -
25/02:30am 16.7 NW 3 4 1019.2 - 0.0 - - 10 - - - -
25/02:00am 17.2 WNW 5 6 1019.1 - 0.0 - - 10 - - - -
25/01:30am 18.0 NNW 8 10 1019.4 - 0.0 - - 10 - - - -
25/01:00am 18.4 N 9 13 1019.4 - 0.0 - Mostly clear 10 - - - -
25/12:30am 17.2 NW 4 5 1020.3 - 0.0 - Mostly clear 10 - - - -
25/12:00am 18.4 WNW 5 6 1021.1 F 0.0 Fine Mostly clear 30 - - - -
 
Date/Time
EST
Temp

°C
Wind Pressure Rain
since 9am
mm
Weather Cloud Vis
km
Sea
Height
m
Swell
Dir
 
Speed
knots
Gust
knots
hPa Trend Height
m
Period
s
Dir
24/11:30pm 18.8 WNW 5 7 1021.4 - 0.0 - Mostly clear 10 - - - -
24/11:00pm 19.8 N 9 11 1021.7 - 0.0 - Mostly clear 10 - - - -
24/10:30pm 20.3 NNW 9 10 1021.9 - 0.0 - Mostly clear 10 - - - -
24/10:00pm 20.6 N 12 16 1022.2 - 0.0 - Mostly clear 10 - - - -
24/09:30pm 20.8 N 12 15 1022.2 - 0.0 - Mostly clear 10 - - - -
24/09:00pm 20.9 N 14 17 1022.2 F 0.0 Fine Partly cloudy 30 - - - -
24/08:30pm 20.9 N 14 18 1022.0 - 0.0 - Mostly clear 10 - - - -
24/08:00pm 20.8 N 14 18 1021.6 - 0.0 - Mostly clear 10 - - - -
24/07:30pm 20.7 NNE 14 17 1021.6 - 0.0 - Mostly clear 10 - - - -
24/07:00pm 21.0 N 14 18 1021.4 - 0.0 - Mostly clear 10 - - - -
24/06:30pm 20.8 N 13 18 1021.1 - 0.0 - Mostly clear 10 - - - -
24/06:00pm 21.1 N 16 19 1020.6 R 0.0 Fine Partly cloudy 30 - - - -
24/05:30pm 21.6 N 15 18 1020.1 - 0.0 - Mostly clear 10 - - - -
24/05:00pm 22.2 N 17 20 1019.7 - 0.0 - - 10 - - - -
24/04:30pm 23.0 N 15 19 1019.6 - 0.0 - - 10 - - - -
24/04:00pm 23.2 N 15 20 1019.5 - 0.0 - Mostly clear 10 - - - -
24/03:30pm 23.6 N 15 19 1019.4 - 0.0 - Mostly clear 10 - - - -
24/03:00pm 23.5 N 15 19 1019.5 R 0.0 Fine Mostly clear 30 - - - -
24/02:30pm 23.8 NNE 14 18 1019.7 - 0.0 - Mostly clear 10 - - - -
24/02:00pm 24.1 NNE 14 17 1020.1 - 0.0 - Mostly clear 10 - - - -
24/01:30pm 24.3 NNE 13 17 1020.5 - 0.0 - Mostly clear 10 - - - -
24/01:00pm 24.3 NNE 15 18 1020.6 - 0.0 - Mostly clear 10 - - - -
24/12:30pm 24.7 NE 14 18 1020.7 - 0.0 - Mostly clear 10 - - - -
24/12:00pm 24.6 NE 11 15 1021.2 S 0.0 Fine Mostly clear 30 - - - -
24/11:30am 24.6 NNE 11 16 1021.5 - 0.0 - Mostly clear 10 - - - -
24/11:00am 24.8 N 11 15 1021.7 - 0.0 - Mostly clear 10 - - - -
24/10:30am 24.5 N 10 13 1022.2 - 0.0 - Mostly clear 10 - - - -
24/10:00am 23.9 N 11 14 1022.5 - 0.0 - Mostly clear 10 - - - -
24/09:30am 23.0 N 9 11 1022.8 - 0.0 - Mostly clear 10 - - - -
24/09:00am 22.8 N 8 10 1022.9 S 0.0 Fine Mostly clear 30 - - - -
24/08:30am 23.1 NNW 7 10 1022.9 - 0.0 - Mostly clear 10 - - - -
24/08:00am 22.4 N 7 10 1022.9 - 0.0 - Mostly clear 10 - - - -
24/07:30am 21.3 NW 4 6 1022.7 - 0.0 - Mostly clear 10 - - - -
24/07:00am 20.7 W 4 6 1022.6 - 0.0 - Mostly clear 10 - - - -
24/06:30am 19.6 W 3 5 1022.3 - 0.0 - Partly cloudy 10 - - - -
24/06:00am 19.0 CALM 0 0 1022.1 R 0.0 Fine Partly cloudy 30 - - - -
24/05:30am 18.3 WNW 1 5 1021.8 - 0.0 - Partly cloudy 10 - - - -
24/05:00am 18.1 NNW 1 5 1021.5 - 0.0 - Partly cloudy 10 - - - -
24/04:30am 18.4 WNW 5 6 1021.4 - 0.0 - Mostly cloudy 10 - - - -
24/04:00am 17.9 CALM 0 0 1020.9 - 0.0 - Mostly cloudy 10 - - - -
24/03:30am 17.0 WNW 2 5 1020.7 - 0.0 - Partly cloudy 10 - - - -
24/03:00am 17.5 WNW 4 4 1020.5 S 0.0 Fine Partly cloudy 30 - - - -
24/02:30am 17.7 WNW 6 7 1020.6 - 0.0 - Partly cloudy 10 - - - -
24/02:00am 17.5 WNW 5 6 1020.6 - 0.0 - Mostly clear 10 - - - -
24/01:30am 18.0 WNW 6 7 1020.7 - 0.0 - Mostly clear 10 - - - -
24/01:00am 18.7 NW 6 7 1020.7 - 0.0 - Mostly clear 10 - - - -
24/12:30am 19.2 N 9 16 1021.0 - 0.0 - Mostly clear 10 - - - -
24/12:00am 19.5 N 9 11 1021.4 S 0.0 Fine Mostly clear 30 - - - -
 
Date/Time
EST
Temp

°C
Wind Pressure Rain
since 9am
mm
Weather Cloud Vis
km
Sea
Height
m
Swell
Dir
 
Speed
knots
Gust
knots
hPa Trend Height
m
Period
s
Dir
23/11:30pm 19.9 N 11 14 1021.5 - 0.0 - - 10 - - - -
23/11:00pm 19.9 NNE 10 13 1021.7 - 0.0 - - 10 - - - -
23/10:30pm 19.9 NNE 10 14 1021.4 - 0.0 - - 10 - - - -
23/10:00pm 19.6 NNE 9 11 1021.4 - 0.0 - - 10 - - - -
23/09:30pm 19.7 NNE 8 11 1021.8 - 0.0 - - 10 - - - -
23/09:00pm 19.7 NNE 6 7 1021.8 R 0.0 Distant precip. Partly cloudy 30 - - - -
23/08:30pm 20.0 NNE 9 11 1021.2 - 0.0 - - 10 - - - -
23/08:00pm 20.4 NNE 9 12 1020.9 - 0.0 - - 10 - - - -
23/07:30pm 20.3 NNE 10 14 1020.2 - 0.0 - - 10 - - - -
23/07:00pm 20.5 NNE 12 16 1020.0 - 0.0 - Mostly clear 10 - - - -
23/06:30pm 20.2 N 12 17 1019.8 - 0.0 - Mostly clear 10 - - - -
23/06:00pm 20.6 N 11 15 1019.3 R 0.0 Distant precip. Partly cloudy 30 - - - -
23/05:30pm 21.0 N 14 17 1018.9 - 0.0 - Mostly clear 10 - - - -
23/05:00pm 21.9 N 14 18 1018.4 - 0.0 - Mostly clear 10 - - - -
23/04:30pm 22.6 N 15 19 1017.7 - 0.0 - Mostly clear 10 - - - -
23/04:00pm 22.7 N 15 18 1017.7 - 0.0 - Mostly clear 10 - - - -
23/03:30pm 22.8 N 14 19 1017.5 - 0.0 - Mostly clear 10 - - - -
23/03:00pm 23.8 NNE 13 16 1017.5 F 0.0 Fine Mostly clear 30 - - - -
23/02:30pm 23.5 NNE 13 16 1017.7 - 0.0 - Mostly clear 10 - - - -
23/02:00pm 24.3 NNE 13 16 1018.1 - 0.0 - - 10 - - - -
23/01:30pm 24.0 NNE 15 18 1018.7 - 0.0 - Mostly clear 10 - - - -
23/01:00pm 23.7 NNE 14 17 1019.0 - 0.0 - Mostly clear 10 - - - -
23/12:30pm 24.0 NNE 14 17 1019.5 - 0.0 - Mostly clear 10 - - - -
23/12:00pm 23.3 NNE 13 16 1020.1 F 0.0 Fine Mostly clear 30 - - - -
23/11:30am 23.9 NNE 13 16 1020.6 - 0.0 - Mostly clear 10 - - - -
23/11:00am 23.8 N 12 16 1021.0 - 0.0 - Mostly clear 10 - - - -
23/10:30am 23.0 NNE 9 14 1021.5 - 0.0 - Mostly clear 10 - - - -
23/10:00am 22.0 N 10 13 1021.9 - 0.0 - Mostly clear 10 - - - -
23/09:30am 21.8 N 7 12 1022.3 - 0.0 - Mostly clear 10 - - - -
23/09:00am 22.1 NNW 3 9 1022.5 F 0.0 Fine Mostly clear 30 - - - -
23/08:30am 20.8 WNW 3 5 1022.7 - 0.0 - Mostly clear 10 - - - -
23/08:00am 20.6 SSW 5 7 1022.9 - 0.0 - Mostly clear 10 - - - -
23/07:30am 20.3 SSW 6 8 1022.8 - 0.0 - Mostly clear 10 - - - -
23/07:00am 18.2 SSW 6 7 1022.5 - 0.0 - Mostly clear 10 - - - -

Other Formats:

Comma delimited format used in spreadsheet applications
http://www.bom.gov.au/fwo/IDQ60701/IDQ60701.94578.axf

JavaScript Object Notation format (JSON) in row-major order
http://www.bom.gov.au/fwo/IDQ60701/IDQ60701.94578.json